Verona / Villafranca Airport LIPX

Flugplatz Daten

Name: Verona / Villafranca Airport

Ident: LIPX

Lat: 45,39569855

Long: 10,88850021

Platzhöhe: 239 ft

IataCode: VRN

City: Verona

Homepage: http://www.aeroportoverona.it/

Metar

2021/12/04 00:20
LIPX 040020Z 27002KT CAVOK 01/M01 Q1015

Taf

2021/12/03 00:25
TAF LIPX 032300Z 0400/0424 VRB05KT 9999 SCT040 PROB30
TEMPO 0400/0406 1000 BCFG
TEMPO 0418/0424 SHRA
Gewünschte Webcam nicht vorhanden? Dann fügen Sie eine hinzu. Sie wird dann so schnell wie möglich freigeschaltet
Url: Title: